sensor_id;sensor_type;location;lat;lon;timestamp;P1;durP1;ratioP1;P2;durP2;ratioP2
75167;SDS011;73507;52.510;13.420;2024-03-23T00:52:10;9.32;;;2.20;;
75167;SDS011;73507;52.510;13.420;2024-03-23T00:57:22;27.65;;;8.10;;
75167;SDS011;73507;52.510;13.420;2024-03-23T01:02:35;12.05;;;2.45;;
75167;SDS011;73507;52.510;13.420;2024-03-23T01:05:01;9.75;;;3.25;;
75167;SDS011;73507;52.510;13.420;2024-03-23T01:07:28;10.25;;;2.30;;
75167;SDS011;73507;52.510;13.420;2024-03-23T01:09:54;8.73;;;2.75;;
75167;SDS011;73507;52.510;13.420;2024-03-23T01:12:20;20.00;;;3.42;;
75167;SDS011;73507;52.510;13.420;2024-03-23T01:14:47;17.13;;;2.75;;
75167;SDS011;73507;52.510;13.420;2024-03-23T01:17:13;10.43;;;2.47;;
75167;SDS011;73507;52.510;13.420;2024-03-23T01:19:39;7.53;;;2.10;;
75167;SDS011;73507;52.510;13.420;2024-03-23T01:22:06;13.60;;;1.75;;
75167;SDS011;73507;52.510;13.420;2024-03-23T01:24:33;12.10;;;2.05;;
75167;SDS011;73507;52.510;13.420;2024-03-23T01:26:59;13.35;;;2.33;;
75167;SDS011;73507;52.510;13.420;2024-03-23T01:29:27;13.75;;;3.25;;
75167;SDS011;73507;52.510;13.420;2024-03-23T01:31:53;10.07;;;2.00;;
75167;SDS011;73507;52.510;13.420;2024-03-23T01:34:19;6.05;;;2.15;;
75167;SDS011;73507;52.510;13.420;2024-03-23T01:36:46;15.75;;;2.83;;
75167;SDS011;73507;52.510;13.420;2024-03-23T01:39:12;13.30;;;2.38;;
75167;SDS011;73507;52.510;13.420;2024-03-23T01:41:39;8.05;;;1.90;;
75167;SDS011;73507;52.510;13.420;2024-03-23T01:44:07;14.30;;;2.83;;
75167;SDS011;73507;52.510;13.420;2024-03-23T01:46:35;11.48;;;2.50;;
75167;SDS011;73507;52.510;13.420;2024-03-23T01:49:01;16.65;;;2.70;;
75167;SDS011;73507;52.510;13.420;2024-03-23T01:51:28;10.23;;;3.10;;
75167;SDS011;73507;52.510;13.420;2024-03-23T01:53:54;11.15;;;3.15;;
75167;SDS011;73507;52.510;13.420;2024-03-23T01:56:22;13.75;;;2.83;;
75167;SDS011;73507;52.510;13.420;2024-03-23T01:58:48;9.88;;;2.35;;
75167;SDS011;73507;52.510;13.420;2024-03-23T02:01:15;9.30;;;3.20;;
75167;SDS011;73507;52.510;13.420;2024-03-23T02:03:41;14.35;;;3.72;;
75167;SDS011;73507;52.510;13.420;2024-03-23T02:06:07;13.82;;;2.50;;
75167;SDS011;73507;52.510;13.420;2024-03-23T02:08:34;12.57;;;3.28;;
75167;SDS011;73507;52.510;13.420;2024-03-23T02:11:00;8.13;;;1.85;;
75167;SDS011;73507;52.510;13.420;2024-03-23T02:13:26;7.07;;;1.92;;
75167;SDS011;73507;52.510;13.420;2024-03-23T02:15:53;8.50;;;2.35;;
75167;SDS011;73507;52.510;13.420;2024-03-23T02:18:19;13.05;;;2.88;;
75167;SDS011;73507;52.510;13.420;2024-03-23T02:20:45;12.98;;;3.15;;
75167;SDS011;73507;52.510;13.420;2024-03-23T02:23:15;6.57;;;1.52;;
75167;SDS011;73507;52.510;13.420;2024-03-23T02:25:41;15.73;;;2.63;;
75167;SDS011;73507;52.510;13.420;2024-03-23T02:28:07;15.65;;;2.80;;
75167;SDS011;73507;52.510;13.420;2024-03-23T02:30:34;11.35;;;2.40;;
75167;SDS011;73507;52.510;13.420;2024-03-23T02:33:00;19.25;;;4.00;;
75167;SDS011;73507;52.510;13.420;2024-03-23T02:35:26;20.60;;;4.85;;
75167;SDS011;73507;52.510;13.420;2024-03-23T02:37:52;15.75;;;4.60;;
75167;SDS011;73507;52.510;13.420;2024-03-23T02:40:19;20.13;;;5.13;;
75167;SDS011;73507;52.510;13.420;2024-03-23T02:42:46;23.88;;;7.80;;
75167;SDS011;73507;52.510;13.420;2024-03-23T02:45:13;27.02;;;5.93;;
75167;SDS011;73507;52.510;13.420;2024-03-23T02:47:39;8.75;;;2.38;;
75167;SDS011;73507;52.510;13.420;2024-03-23T02:50:06;12.57;;;3.65;;
75167;SDS011;73507;52.510;13.420;2024-03-23T02:52:32;17.45;;;4.13;;
75167;SDS011;73507;52.510;13.420;2024-03-23T02:54:59;12.23;;;4.13;;
75167;SDS011;73507;52.510;13.420;2024-03-23T02:57:27;17.48;;;4.15;;
75167;SDS011;73507;52.510;13.420;2024-03-23T02:59:53;11.00;;;2.85;;
75167;SDS011;73507;52.510;13.420;2024-03-23T03:02:19;16.42;;;3.63;;
75167;SDS011;73507;52.510;13.420;2024-03-23T03:04:46;8.90;;;2.75;;
75167;SDS011;73507;52.510;13.420;2024-03-23T03:07:13;9.68;;;3.00;;
75167;SDS011;73507;52.510;13.420;2024-03-23T03:09:39;11.00;;;2.80;;
75167;SDS011;73507;52.510;13.420;2024-03-23T03:12:06;13.43;;;2.70;;
75167;SDS011;73507;52.510;13.420;2024-03-23T03:14:32;12.70;;;3.00;;
75167;SDS011;73507;52.510;13.420;2024-03-23T03:16:58;11.05;;;3.58;;
75167;SDS011;73507;52.510;13.420;2024-03-23T03:19:24;19.38;;;3.53;;
75167;SDS011;73507;52.510;13.420;2024-03-23T03:21:51;9.13;;;2.95;;
75167;SDS011;73507;52.510;13.420;2024-03-23T03:24:17;13.20;;;3.13;;
75167;SDS011;73507;52.510;13.420;2024-03-23T03:26:43;12.70;;;2.85;;
75167;SDS011;73507;52.510;13.420;2024-03-23T03:29:09;6.75;;;2.95;;
75167;SDS011;73507;52.510;13.420;2024-03-23T03:31:36;16.15;;;3.75;;
75167;SDS011;73507;52.510;13.420;2024-03-23T03:34:03;11.43;;;3.05;;
75167;SDS011;73507;52.510;13.420;2024-03-23T03:36:29;9.68;;;2.75;;
75167;SDS011;73507;52.510;13.420;2024-03-23T03:38:55;9.43;;;1.92;;
75167;SDS011;73507;52.510;13.420;2024-03-23T03:41:21;7.25;;;1.85;;
75167;SDS011;73507;52.510;13.420;2024-03-23T03:43:47;11.18;;;2.83;;
75167;SDS011;73507;52.510;13.420;2024-03-23T03:46:13;11.93;;;2.75;;
75167;SDS011;73507;52.510;13.420;2024-03-23T03:48:40;4.18;;;1.33;;
75167;SDS011;73507;52.510;13.420;2024-03-23T03:51:06;11.38;;;3.17;;
75167;SDS011;73507;52.510;13.420;2024-03-23T03:53:32;7.65;;;1.63;;
75167;SDS011;73507;52.510;13.420;2024-03-23T03:56:01;7.82;;;1.63;;
75167;SDS011;73507;52.510;13.420;2024-03-23T03:58:27;8.57;;;2.13;;
75167;SDS011;73507;52.510;13.420;2024-03-23T04:00:54;10.05;;;2.25;;
75167;SDS011;73507;52.510;13.420;2024-03-23T04:03:20;13.20;;;3.05;;
75167;SDS011;73507;52.510;13.420;2024-03-23T04:05:51;8.90;;;2.88;;
75167;SDS011;73507;52.510;13.420;2024-03-23T04:08:19;11.93;;;3.95;;
75167;SDS011;73507;52.510;13.420;2024-03-23T04:10:45;9.15;;;2.05;;
75167;SDS011;73507;52.510;13.420;2024-03-23T04:13:11;7.93;;;1.98;;
75167;SDS011;73507;52.510;13.420;2024-03-23T04:15:37;4.13;;;1.02;;
75167;SDS011;73507;52.510;13.420;2024-03-23T04:18:04;5.32;;;2.83;;
75167;SDS011;73507;52.510;13.420;2024-03-23T04:20:31;2.53;;;0.90;;
75167;SDS011;73507;52.510;13.420;2024-03-23T04:22:57;7.30;;;2.40;;
75167;SDS011;73507;52.510;13.420;2024-03-23T04:25:24;5.50;;;1.77;;
75167;SDS011;73507;52.510;13.420;2024-03-23T04:27:50;4.28;;;1.50;;
75167;SDS011;73507;52.510;13.420;2024-03-23T04:30:16;5.15;;;1.25;;
75167;SDS011;73507;52.510;13.420;2024-03-23T04:32:42;1.50;;;0.90;;
75167;SDS011;73507;52.510;13.420;2024-03-23T04:35:09;3.10;;;0.68;;
75167;SDS011;73507;52.510;13.420;2024-03-23T04:37:35;3.55;;;1.38;;
75167;SDS011;73507;52.510;13.420;2024-03-23T04:40:01;3.17;;;0.90;;
75167;SDS011;73507;52.510;13.420;2024-03-23T04:42:32;10.25;;;1.63;;
75167;SDS011;73507;52.510;13.420;2024-03-23T04:44:58;6.78;;;1.73;;
75167;SDS011;73507;52.510;13.420;2024-03-23T04:47:24;10.25;;;3.45;;
75167;SDS011;73507;52.510;13.420;2024-03-23T04:49:50;13.30;;;3.88;;
75167;SDS011;73507;52.510;13.420;2024-03-23T04:52:17;3.10;;;0.88;;
75167;SDS011;73507;52.510;13.420;2024-03-23T04:54:43;3.00;;;0.82;;
75167;SDS011;73507;52.510;13.420;2024-03-23T04:57:13;15.85;;;1.55;;
75167;SDS011;73507;52.510;13.420;2024-03-23T04:59:39;2.63;;;1.13;;
75167;SDS011;73507;52.510;13.420;2024-03-23T05:02:05;5.35;;;1.20;;
75167;SDS011;73507;52.510;13.420;2024-03-23T05:04:31;9.07;;;1.85;;
75167;SDS011;73507;52.510;13.420;2024-03-23T05:06:57;11.20;;;1.90;;
75167;SDS011;73507;52.510;13.420;2024-03-23T05:09:24;11.27;;;3.53;;
75167;SDS011;73507;52.510;13.420;2024-03-23T05:11:50;9.20;;;2.75;;
75167;SDS011;73507;52.510;13.420;2024-03-23T05:14:16;14.73;;;3.40;;
75167;SDS011;73507;52.510;13.420;2024-03-23T05:16:42;4.55;;;1.70;;
75167;SDS011;73507;52.510;13.420;2024-03-23T05:19:09;7.13;;;1.98;;
75167;SDS011;73507;52.510;13.420;2024-03-23T05:21:35;6.22;;;1.30;;
75167;SDS011;73507;52.510;13.420;2024-03-23T05:24:01;11.02;;;2.65;;
75167;SDS011;73507;52.510;13.420;2024-03-23T05:26:28;9.13;;;3.08;;
75167;SDS011;73507;52.510;13.420;2024-03-23T05:28:54;4.72;;;1.42;;
75167;SDS011;73507;52.510;13.420;2024-03-23T05:31:24;3.92;;;1.00;;
75167;SDS011;73507;52.510;13.420;2024-03-23T05:33:50;3.78;;;1.13;;
75167;SDS011;73507;52.510;13.420;2024-03-23T05:36:17;7.97;;;1.48;;
75167;SDS011;73507;52.510;13.420;2024-03-23T05:38:43;2.78;;;0.95;;
75167;SDS011;73507;52.510;13.420;2024-03-23T05:41:09;8.43;;;1.55;;
75167;SDS011;73507;52.510;13.420;2024-03-23T05:43:35;11.07;;;2.15;;
75167;SDS011;73507;52.510;13.420;2024-03-23T05:46:01;8.77;;;2.13;;
75167;SDS011;73507;52.510;13.420;2024-03-23T05:48:30;4.90;;;1.25;;
75167;SDS011;73507;52.510;13.420;2024-03-23T05:50:56;10.77;;;1.95;;
75167;SDS011;73507;52.510;13.420;2024-03-23T05:53:23;4.85;;;1.67;;
75167;SDS011;73507;52.510;13.420;2024-03-23T05:55:50;8.80;;;2.10;;
75167;SDS011;73507;52.510;13.420;2024-03-23T05:58:18;5.88;;;1.83;;
75167;SDS011;73507;52.510;13.420;2024-03-23T06:00:45;7.47;;;1.77;;
75167;SDS011;73507;52.510;13.420;2024-03-23T06:03:11;8.38;;;1.80;;
75167;SDS011;73507;52.510;13.420;2024-03-23T06:05:38;7.57;;;2.30;;
75167;SDS011;73507;52.510;13.420;2024-03-23T06:08:04;5.93;;;2.88;;
75167;SDS011;73507;52.510;13.420;2024-03-23T06:10:35;9.07;;;2.08;;
75167;SDS011;73507;52.510;13.420;2024-03-23T06:13:04;5.97;;;2.67;;
75167;SDS011;73507;52.510;13.420;2024-03-23T06:15:36;12.43;;;2.70;;
75167;SDS011;73507;52.510;13.420;2024-03-23T06:18:03;9.18;;;2.35;;
75167;SDS011;73507;52.510;13.420;2024-03-23T06:20:30;13.45;;;3.50;;
75167;SDS011;73507;52.510;13.420;2024-03-23T06:23:06;9.38;;;2.88;;
75167;SDS011;73507;52.510;13.420;2024-03-23T06:25:32;14.32;;;4.15;;
75167;SDS011;73507;52.510;13.420;2024-03-23T06:27:58;7.10;;;1.95;;
75167;SDS011;73507;52.510;13.420;2024-03-23T06:30:42;5.93;;;1.77;;
75167;SDS011;73507;52.510;13.420;2024-03-23T06:33:09;6.88;;;1.95;;
75167;SDS011;73507;52.510;13.420;2024-03-23T06:35:35;6.82;;;2.67;;
75167;SDS011;73507;52.510;13.420;2024-03-23T06:38:01;6.32;;;2.55;;
75167;SDS011;73507;52.510;13.420;2024-03-23T06:40:28;7.00;;;1.70;;
75167;SDS011;73507;52.510;13.420;2024-03-23T06:42:54;10.82;;;2.90;;
75167;SDS011;73507;52.510;13.420;2024-03-23T06:45:20;9.70;;;1.77;;
75167;SDS011;73507;52.510;13.420;2024-03-23T06:47:48;15.02;;;3.30;;
75167;SDS011;73507;52.510;13.420;2024-03-23T06:50:15;7.20;;;1.42;;
75167;SDS011;73507;52.510;13.420;2024-03-23T06:52:44;13.73;;;2.40;;
75167;SDS011;73507;52.510;13.420;2024-03-23T06:55:16;12.13;;;1.42;;
75167;SDS011;73507;52.510;13.420;2024-03-23T06:57:42;8.73;;;2.33;;
75167;SDS011;73507;52.510;13.420;2024-03-23T07:00:12;4.10;;;1.75;;
75167;SDS011;73507;52.510;13.420;2024-03-23T07:02:41;8.30;;;2.15;;
75167;SDS011;73507;52.510;13.420;2024-03-23T07:05:09;3.55;;;1.42;;
75167;SDS011;73507;52.510;13.420;2024-03-23T07:07:44;2.20;;;1.08;;
75167;SDS011;73507;52.510;13.420;2024-03-23T07:10:13;5.13;;;1.60;;
75167;SDS011;73507;52.510;13.420;2024-03-23T07:12:39;5.53;;;1.75;;
75167;SDS011;73507;52.510;13.420;2024-03-23T07:15:06;3.00;;;1.17;;
75167;SDS011;73507;52.510;13.420;2024-03-23T07:17:33;6.50;;;2.25;;
75167;SDS011;73507;52.510;13.420;2024-03-23T07:20:00;8.43;;;1.73;;
75167;SDS011;73507;52.510;13.420;2024-03-23T07:22:29;2.58;;;1.05;;
75167;SDS011;73507;52.510;13.420;2024-03-23T07:24:55;6.63;;;1.63;;
75167;SDS011;73507;52.510;13.420;2024-03-23T07:27:22;3.25;;;1.08;;
75167;SDS011;73507;52.510;13.420;2024-03-23T07:29:51;9.68;;;3.47;;
75167;SDS011;73507;52.510;13.420;2024-03-23T07:32:22;5.60;;;2.72;;
75167;SDS011;73507;52.510;13.420;2024-03-23T07:34:48;4.70;;;1.38;;
75167;SDS011;73507;52.510;13.420;2024-03-23T07:37:14;7.70;;;2.30;;
75167;SDS011;73507;52.510;13.420;2024-03-23T07:39:40;3.88;;;1.48;;
75167;SDS011;73507;52.510;13.420;2024-03-23T07:42:06;6.35;;;1.42;;
75167;SDS011;73507;52.510;13.420;2024-03-23T07:44:33;5.72;;;1.42;;
75167;SDS011;73507;52.510;13.420;2024-03-23T07:47:02;8.35;;;2.13;;
75167;SDS011;73507;52.510;13.420;2024-03-23T07:49:28;3.38;;;1.23;;
75167;SDS011;73507;52.510;13.420;2024-03-23T07:51:54;9.30;;;1.90;;
75167;SDS011;73507;52.510;13.420;2024-03-23T07:54:20;4.43;;;1.48;;
75167;SDS011;73507;52.510;13.420;2024-03-23T07:56:47;4.55;;;1.45;;
75167;SDS011;73507;52.510;13.420;2024-03-23T07:59:13;2.85;;;1.10;;
75167;SDS011;73507;52.510;13.420;2024-03-23T08:01:39;6.00;;;1.08;;
75167;SDS011;73507;52.510;13.420;2024-03-23T08:04:05;4.57;;;1.73;;
75167;SDS011;73507;52.510;13.420;2024-03-23T08:06:31;6.40;;;0.90;;
75167;SDS011;73507;52.510;13.420;2024-03-23T08:08:57;3.30;;;0.95;;
75167;SDS011;73507;52.510;13.420;2024-03-23T08:11:27;7.22;;;2.17;;
75167;SDS011;73507;52.510;13.420;2024-03-23T08:13:54;3.60;;;1.30;;
75167;SDS011;73507;52.510;13.420;2024-03-23T08:16:20;3.78;;;1.13;;
75167;SDS011;73507;52.510;13.420;2024-03-23T08:18:46;3.00;;;0.98;;
75167;SDS011;73507;52.510;13.420;2024-03-23T08:21:13;1.67;;;0.63;;
75167;SDS011;73507;52.510;13.420;2024-03-23T08:23:39;3.88;;;1.08;;
75167;SDS011;73507;52.510;13.420;2024-03-23T08:26:06;1.92;;;0.55;;
75167;SDS011;73507;52.510;13.420;2024-03-23T08:28:33;3.38;;;1.35;;
75167;SDS011;73507;52.510;13.420;2024-03-23T08:31:03;2.78;;;1.65;;
75167;SDS011;73507;52.510;13.420;2024-03-23T08:33:30;3.55;;;0.60;;
75167;SDS011;73507;52.510;13.420;2024-03-23T08:36:03;2.70;;;0.60;;
75167;SDS011;73507;52.510;13.420;2024-03-23T08:38:30;4.82;;;1.15;;
75167;SDS011;73507;52.510;13.420;2024-03-23T08:41:00;2.45;;;0.85;;
75167;SDS011;73507;52.510;13.420;2024-03-23T08:43:27;2.72;;;1.23;;
75167;SDS011;73507;52.510;13.420;2024-03-23T08:46:02;2.22;;;0.90;;
75167;SDS011;73507;52.510;13.420;2024-03-23T08:48:28;0.85;;;0.60;;
75167;SDS011;73507;52.510;13.420;2024-03-23T08:50:59;3.58;;;1.35;;
75167;SDS011;73507;52.510;13.420;2024-03-23T08:53:27;5.20;;;1.15;;
75167;SDS011;73507;52.510;13.420;2024-03-23T08:55:54;4.55;;;1.83;;
75167;SDS011;73507;52.510;13.420;2024-03-23T08:58:20;4.22;;;1.23;;
75167;SDS011;73507;52.510;13.420;2024-03-23T09:00:46;3.17;;;1.42;;
75167;SDS011;73507;52.510;13.420;2024-03-23T09:03:12;6.57;;;1.70;;
75167;SDS011;73507;52.510;13.420;2024-03-23T09:05:39;4.75;;;1.50;;
75167;SDS011;73507;52.510;13.420;2024-03-23T09:08:05;3.85;;;2.05;;
75167;SDS011;73507;52.510;13.420;2024-03-23T09:10:34;6.47;;;1.25;;
75167;SDS011;73507;52.510;13.420;2024-03-23T09:13:00;2.45;;;0.77;;
75167;SDS011;73507;52.510;13.420;2024-03-23T09:15:28;6.38;;;1.40;;
75167;SDS011;73507;52.510;13.420;2024-03-23T09:18:03;3.90;;;1.63;;
75167;SDS011;73507;52.510;13.420;2024-03-23T09:20:33;3.30;;;0.98;;
75167;SDS011;73507;52.510;13.420;2024-03-23T09:22:59;2.03;;;0.90;;
75167;SDS011;73507;52.510;13.420;2024-03-23T09:25:25;2.20;;;1.27;;
75167;SDS011;73507;52.510;13.420;2024-03-23T09:27:55;7.60;;;0.85;;
75167;SDS011;73507;52.510;13.420;2024-03-23T09:30:26;5.65;;;1.45;;
75167;SDS011;73507;52.510;13.420;2024-03-23T09:32:56;1.58;;;0.95;;
75167;SDS011;73507;52.510;13.420;2024-03-23T09:35:26;2.38;;;1.17;;
75167;SDS011;73507;52.510;13.420;2024-03-23T09:37:59;1.05;;;0.65;;
75167;SDS011;73507;52.510;13.420;2024-03-23T09:40:25;2.47;;;1.02;;
75167;SDS011;73507;52.510;13.420;2024-03-23T09:43:02;2.67;;;0.68;;
75167;SDS011;73507;52.510;13.420;2024-03-23T09:45:41;4.40;;;1.00;;
75167;SDS011;73507;52.510;13.420;2024-03-23T09:51:00;3.70;;;1.40;;
75167;SDS011;73507;52.510;13.420;2024-03-23T09:53:30;4.80;;;1.23;;
75167;SDS011;73507;52.510;13.420;2024-03-23T09:56:07;4.63;;;1.63;;
75167;SDS011;73507;52.510;13.420;2024-03-23T09:58:34;2.17;;;1.05;;
75167;SDS011;73507;52.510;13.420;2024-03-23T10:01:00;6.85;;;1.70;;
75167;SDS011;73507;52.510;13.420;2024-03-23T10:03:28;2.88;;;0.88;;
75167;SDS011;73507;52.510;13.420;2024-03-23T10:06:01;3.97;;;0.95;;
75167;SDS011;73507;52.510;13.420;2024-03-23T10:08:28;1.58;;;0.77;;
75167;SDS011;73507;52.510;13.420;2024-03-23T10:10:58;0.85;;;0.63;;
75167;SDS011;73507;52.510;13.420;2024-03-23T10:13:38;1.30;;;0.45;;
75167;SDS011;73507;52.510;13.420;2024-03-23T10:16:07;0.82;;;0.73;;
75167;SDS011;73507;52.510;13.420;2024-03-23T10:18:36;5.93;;;0.82;;
75167;SDS011;73507;52.510;13.420;2024-03-23T10:23:36;2.08;;;0.80;;
75167;SDS011;73507;52.510;13.420;2024-03-23T10:26:35;2.63;;;0.95;;
75167;SDS011;73507;52.510;13.420;2024-03-23T10:28:59;4.53;;;1.05;;
75167;SDS011;73507;52.510;13.420;2024-03-23T10:31:33;1.08;;;0.55;;
75167;SDS011;73507;52.510;13.420;2024-03-23T10:34:06;4.75;;;1.55;;
75167;SDS011;73507;52.510;13.420;2024-03-23T10:39:01;2.28;;;1.08;;
75167;SDS011;73507;52.510;13.420;2024-03-23T10:41:31;0.17;;;0.17;;
75167;SDS011;73507;52.510;13.420;2024-03-23T10:44:00;1.95;;;1.25;;
75167;SDS011;73507;52.510;13.420;2024-03-23T10:46:32;3.03;;;1.23;;
75167;SDS011;73507;52.510;13.420;2024-03-23T10:49:02;0.50;;;0.45;;
75167;SDS011;73507;52.510;13.420;2024-03-23T10:51:29;3.30;;;1.58;;
75167;SDS011;73507;52.510;13.420;2024-03-23T10:53:55;3.40;;;1.23;;
75167;SDS011;73507;52.510;13.420;2024-03-23T10:56:22;3.45;;;1.02;;
75167;SDS011;73507;52.510;13.420;2024-03-23T10:58:48;5.15;;;1.70;;
75167;SDS011;73507;52.510;13.420;2024-03-23T11:04:01;5.05;;;0.93;;
75167;SDS011;73507;52.510;13.420;2024-03-23T11:06:39;3.55;;;0.93;;
75167;SDS011;73507;52.510;13.420;2024-03-23T11:12:10;1.15;;;0.70;;
75167;SDS011;73507;52.510;13.420;2024-03-23T11:14:47;1.02;;;0.70;;
75167;SDS011;73507;52.510;13.420;2024-03-23T11:17:22;2.60;;;1.27;;
75167;SDS011;73507;52.510;13.420;2024-03-23T11:20:05;1.98;;;0.95;;
75167;SDS011;73507;52.510;13.420;2024-03-23T11:27:40;6.25;;;1.23;;
75167;SDS011;73507;52.510;13.420;2024-03-23T11:32:56;3.53;;;1.55;;
75167;SDS011;73507;52.510;13.420;2024-03-23T11:35:29;2.38;;;0.60;;
75167;SDS011;73507;52.510;13.420;2024-03-23T11:38:08;2.10;;;0.75;;
75167;SDS011;73507;52.510;13.420;2024-03-23T11:40:44;2.25;;;1.05;;
75167;SDS011;73507;52.510;13.420;2024-03-23T11:43:14;4.70;;;1.73;;
75167;SDS011;73507;52.510;13.420;2024-03-23T11:45:42;1.38;;;0.77;;
75167;SDS011;73507;52.510;13.420;2024-03-23T11:51:13;3.85;;;0.60;;
75167;SDS011;73507;52.510;13.420;2024-03-23T11:56:59;4.43;;;1.13;;
75167;SDS011;73507;52.510;13.420;2024-03-23T12:01:59;5.85;;;1.40;;
75167;SDS011;73507;52.510;13.420;2024-03-23T12:04:26;3.53;;;1.00;;
75167;SDS011;73507;52.510;13.420;2024-03-23T12:12:59;6.53;;;1.50;;
75167;SDS011;73507;52.510;13.420;2024-03-23T12:15:25;4.45;;;2.15;;
75167;SDS011;73507;52.510;13.420;2024-03-23T12:17:51;2.30;;;1.58;;
75167;SDS011;73507;52.510;13.420;2024-03-23T12:20:18;4.82;;;1.13;;
75167;SDS011;73507;52.510;13.420;2024-03-23T12:23:03;4.05;;;1.30;;
75167;SDS011;73507;52.510;13.420;2024-03-23T12:25:30;2.72;;;1.10;;
75167;SDS011;73507;52.510;13.420;2024-03-23T12:27:58;2.75;;;1.42;;
75167;SDS011;73507;52.510;13.420;2024-03-23T12:30:24;5.25;;;1.00;;
75167;SDS011;73507;52.510;13.420;2024-03-23T12:32:52;5.07;;;2.13;;
75167;SDS011;73507;52.510;13.420;2024-03-23T12:35:19;4.60;;;1.58;;
75167;SDS011;73507;52.510;13.420;2024-03-23T12:40:30;4.43;;;1.25;;
75167;SDS011;73507;52.510;13.420;2024-03-23T12:42:56;2.28;;;1.08;;
75167;SDS011;73507;52.510;13.420;2024-03-23T12:45:23;5.78;;;2.00;;
75167;SDS011;73507;52.510;13.420;2024-03-23T12:47:50;7.07;;;2.35;;
75167;SDS011;73507;52.510;13.420;2024-03-23T12:50:20;2.10;;;1.00;;
75167;SDS011;73507;52.510;13.420;2024-03-23T12:52:47;6.18;;;0.90;;
75167;SDS011;73507;52.510;13.420;2024-03-23T12:55:13;2.50;;;1.52;;
75167;SDS011;73507;52.510;13.420;2024-03-23T12:57:39;2.60;;;1.02;;
75167;SDS011;73507;52.510;13.420;2024-03-23T13:00:08;4.07;;;0.85;;
75167;SDS011;73507;52.510;13.420;2024-03-23T13:05:24;10.70;;;2.88;;
75167;SDS011;73507;52.510;13.420;2024-03-23T13:07:53;1.52;;;1.27;;
75167;SDS011;73507;52.510;13.420;2024-03-23T13:10:19;6.22;;;1.00;;
75167;SDS011;73507;52.510;13.420;2024-03-23T13:15:36;4.50;;;2.17;;
75167;SDS011;73507;52.510;13.420;2024-03-23T13:18:02;5.88;;;1.58;;
75167;SDS011;73507;52.510;13.420;2024-03-23T13:20:29;2.67;;;0.93;;
75167;SDS011;73507;52.510;13.420;2024-03-23T13:22:57;16.70;;;3.92;;
75167;SDS011;73507;52.510;13.420;2024-03-23T13:25:23;3.17;;;0.93;;
75167;SDS011;73507;52.510;13.420;2024-03-23T13:27:52;6.82;;;1.80;;
75167;SDS011;73507;52.510;13.420;2024-03-23T13:30:19;3.67;;;1.13;;
75167;SDS011;73507;52.510;13.420;2024-03-23T13:32:45;2.50;;;1.05;;
75167;SDS011;73507;52.510;13.420;2024-03-23T13:35:11;5.20;;;2.28;;
75167;SDS011;73507;52.510;13.420;2024-03-23T13:37:37;1.92;;;0.70;;
75167;SDS011;73507;52.510;13.420;2024-03-23T13:40:03;3.63;;;1.02;;
75167;SDS011;73507;52.510;13.420;2024-03-23T13:42:32;6.15;;;1.70;;
75167;SDS011;73507;52.510;13.420;2024-03-23T13:44:58;2.78;;;1.48;;
75167;SDS011;73507;52.510;13.420;2024-03-23T13:47:24;3.45;;;1.25;;
75167;SDS011;73507;52.510;13.420;2024-03-23T13:49:50;5.72;;;1.42;;
75167;SDS011;73507;52.510;13.420;2024-03-23T13:52:16;7.20;;;2.03;;
75167;SDS011;73507;52.510;13.420;2024-03-23T13:54:48;7.00;;;1.88;;
75167;SDS011;73507;52.510;13.420;2024-03-23T13:57:14;6.47;;;1.60;;
75167;SDS011;73507;52.510;13.420;2024-03-23T13:59:40;5.32;;;1.60;;
75167;SDS011;73507;52.510;13.420;2024-03-23T14:02:08;1.88;;;1.20;;
75167;SDS011;73507;52.510;13.420;2024-03-23T14:04:34;6.47;;;1.92;;
75167;SDS011;73507;52.510;13.420;2024-03-23T14:07:02;5.95;;;1.65;;
75167;SDS011;73507;52.510;13.420;2024-03-23T14:14:40;5.10;;;2.03;;
75167;SDS011;73507;52.510;13.420;2024-03-23T14:17:07;7.53;;;2.65;;
75167;SDS011;73507;52.510;13.420;2024-03-23T14:19:34;7.32;;;1.70;;
75167;SDS011;73507;52.510;13.420;2024-03-23T14:22:00;4.30;;;2.10;;
75167;SDS011;73507;52.510;13.420;2024-03-23T14:24:26;5.88;;;1.35;;
75167;SDS011;73507;52.510;13.420;2024-03-23T14:26:53;5.30;;;1.88;;
75167;SDS011;73507;52.510;13.420;2024-03-23T14:29:21;6.70;;;1.98;;
75167;SDS011;73507;52.510;13.420;2024-03-23T14:31:47;4.53;;;1.80;;
75167;SDS011;73507;52.510;13.420;2024-03-23T14:34:25;5.25;;;1.88;;
75167;SDS011;73507;52.510;13.420;2024-03-23T14:36:53;5.45;;;1.38;;
75167;SDS011;73507;52.510;13.420;2024-03-23T14:39:25;5.47;;;2.28;;
75167;SDS011;73507;52.510;13.420;2024-03-23T14:41:55;4.57;;;1.70;;
75167;SDS011;73507;52.510;13.420;2024-03-23T14:44:24;4.25;;;1.02;;
75167;SDS011;73507;52.510;13.420;2024-03-23T14:46:52;5.40;;;1.38;;
75167;SDS011;73507;52.510;13.420;2024-03-23T14:49:25;7.88;;;1.92;;
75167;SDS011;73507;52.510;13.420;2024-03-23T14:52:01;2.40;;;1.30;;
75167;SDS011;73507;52.510;13.420;2024-03-23T14:54:31;3.40;;;1.23;;
75167;SDS011;73507;52.510;13.420;2024-03-23T14:56:57;3.08;;;1.60;;
75167;SDS011;73507;52.510;13.420;2024-03-23T14:59:26;2.40;;;1.73;;
75167;SDS011;73507;52.510;13.420;2024-03-23T15:01:52;3.28;;;1.80;;
75167;SDS011;73507;52.510;13.420;2024-03-23T15:04:19;2.40;;;1.20;;
75167;SDS011;73507;52.510;13.420;2024-03-23T15:06:45;5.20;;;1.50;;
75167;SDS011;73507;52.510;13.420;2024-03-23T15:09:14;2.42;;;1.40;;
75167;SDS011;73507;52.510;13.420;2024-03-23T15:11:40;3.70;;;1.75;;
75167;SDS011;73507;52.510;13.420;2024-03-23T15:14:06;2.55;;;1.63;;
75167;SDS011;73507;52.510;13.420;2024-03-23T15:16:33;3.25;;;1.08;;
75167;SDS011;73507;52.510;13.420;2024-03-23T15:18:59;4.78;;;1.40;;
75167;SDS011;73507;52.510;13.420;2024-03-23T15:24:12;5.20;;;1.05;;
75167;SDS011;73507;52.510;13.420;2024-03-23T15:26:39;1.95;;;1.38;;
75167;SDS011;73507;52.510;13.420;2024-03-23T15:29:06;3.30;;;1.38;;
75167;SDS011;73507;52.510;13.420;2024-03-23T15:31:37;2.03;;;1.23;;
75167;SDS011;73507;52.510;13.420;2024-03-23T15:34:04;1.45;;;0.90;;
75167;SDS011;73507;52.510;13.420;2024-03-23T15:36:30;1.83;;;0.68;;
75167;SDS011;73507;52.510;13.420;2024-03-23T15:38:56;2.15;;;1.25;;
75167;SDS011;73507;52.510;13.420;2024-03-23T15:41:23;4.55;;;1.25;;
75167;SDS011;73507;52.510;13.420;2024-03-23T15:43:49;2.38;;;0.98;;
75167;SDS011;73507;52.510;13.420;2024-03-23T15:46:15;2.15;;;1.17;;
75167;SDS011;73507;52.510;13.420;2024-03-23T15:48:44;1.60;;;1.00;;
75167;SDS011;73507;52.510;13.420;2024-03-23T15:51:12;2.38;;;0.98;;
75167;SDS011;73507;52.510;13.420;2024-03-23T15:53:41;1.58;;;1.17;;
75167;SDS011;73507;52.510;13.420;2024-03-23T15:56:09;3.97;;;1.90;;
75167;SDS011;73507;52.510;13.420;2024-03-23T15:58:35;3.33;;;1.05;;
75167;SDS011;73507;52.510;13.420;2024-03-23T16:01:05;4.15;;;2.05;;
75167;SDS011;73507;52.510;13.420;2024-03-23T16:03:35;4.00;;;2.10;;
75167;SDS011;73507;52.510;13.420;2024-03-23T16:06:03;5.00;;;1.25;;
75167;SDS011;73507;52.510;13.420;2024-03-23T16:08:30;3.97;;;1.90;;
75167;SDS011;73507;52.510;13.420;2024-03-23T16:11:03;1.52;;;1.05;;
75167;SDS011;73507;52.510;13.420;2024-03-23T16:13:29;2.53;;;1.17;;
75167;SDS011;73507;52.510;13.420;2024-03-23T16:16:02;4.05;;;0.80;;
75167;SDS011;73507;52.510;13.420;2024-03-23T16:18:33;2.53;;;1.25;;
75167;SDS011;73507;52.510;13.420;2024-03-23T16:21:01;3.03;;;1.00;;
75167;SDS011;73507;52.510;13.420;2024-03-23T16:23:37;4.05;;;1.55;;